createdAt,value
2022-08-14T00:01:37.779Z,1.38
2022-08-14T00:04:45.033Z,1.50
2022-08-14T00:07:49.528Z,1.50
2022-08-14T00:10:53.409Z,1.48
2022-08-14T00:13:56.248Z,1.55
2022-08-14T00:16:58.991Z,1.17
2022-08-14T00:20:06.255Z,1.20
2022-08-14T00:23:16.450Z,1.50
2022-08-14T00:26:23.142Z,1.45
2022-08-14T00:29:27.271Z,1.35
2022-08-14T00:32:51.830Z,1.40
2022-08-14T00:36:37.372Z,1.27
2022-08-14T00:39:18.643Z,1.85
2022-08-14T00:42:54.839Z,1.55
2022-08-14T00:45:51.603Z,1.23
2022-08-14T00:48:57.842Z,1.20
2022-08-14T00:52:02.254Z,1.40
2022-08-14T00:55:05.843Z,1.30
2022-08-14T00:58:32.930Z,1.30
2022-08-14T01:01:37.266Z,1.20
2022-08-14T01:04:53.687Z,1.42
2022-08-14T01:07:59.452Z,1.73
2022-08-14T01:11:02.747Z,1.75
2022-08-14T01:14:25.557Z,1.52
2022-08-14T01:17:50.768Z,1.02
2022-08-14T01:21:04.082Z,1.73
2022-08-14T01:24:11.017Z,1.60
2022-08-14T01:27:15.419Z,1.35
2022-08-14T01:30:20.889Z,1.42
2022-08-14T01:33:29.068Z,1.55
2022-08-14T01:36:38.097Z,1.55
2022-08-14T01:39:44.201Z,1.40
2022-08-14T01:42:47.263Z,1.67
2022-08-14T01:46:05.690Z,1.88
2022-08-14T01:49:11.543Z,1.58
2022-08-14T01:52:33.729Z,1.45
2022-08-14T01:55:41.234Z,1.40
2022-08-14T01:58:58.050Z,1.40
2022-08-14T02:02:04.005Z,1.27
2022-08-14T02:05:07.149Z,1.33
2022-08-14T02:08:10.633Z,1.40
2022-08-14T02:11:24.137Z,1.60
2022-08-14T02:14:31.759Z,1.60
2022-08-14T02:17:34.940Z,1.55
2022-08-14T02:20:39.962Z,1.48
2022-08-14T02:23:43.005Z,1.40
2022-08-14T02:28:18.979Z,1.40
2022-08-14T02:30:11.532Z,1.50
2022-08-14T02:33:18.360Z,1.30
2022-08-14T02:37:02.788Z,1.35
2022-08-14T02:39:46.544Z,1.52
2022-08-14T02:42:55.270Z,1.20
2022-08-14T02:46:00.392Z,1.63
2022-08-14T02:49:06.301Z,1.48
2022-08-14T02:52:56.625Z,1.40
2022-08-14T02:55:33.275Z,1.52
2022-08-14T02:58:41.941Z,1.23
2022-08-14T03:01:51.155Z,1.20
2022-08-14T03:04:57.799Z,1.33
2022-08-14T03:08:05.853Z,1.27
2022-08-14T03:11:12.128Z,1.27
2022-08-14T03:14:18.066Z,1.52
2022-08-14T03:17:21.336Z,1.17
2022-08-14T03:20:25.293Z,1.33
2022-08-14T03:23:28.750Z,1.52
2022-08-14T03:26:32.324Z,1.48
2022-08-14T03:29:36.752Z,1.58
2022-08-14T03:32:43.913Z,1.40
2022-08-14T03:36:05.543Z,1.70
2022-08-14T03:39:21.947Z,1.52
2022-08-14T03:42:35.835Z,1.48
2022-08-14T03:45:48.040Z,1.40
2022-08-14T03:48:54.170Z,1.50
2022-08-14T03:51:57.697Z,1.63
2022-08-14T03:55:01.113Z,1.30
2022-08-14T03:58:03.958Z,1.20
2022-08-14T04:01:09.217Z,1.90
2022-08-14T04:04:13.408Z,1.27
2022-08-14T04:07:17.579Z,1.17
2022-08-14T04:10:32.312Z,1.40
2022-08-14T04:13:36.193Z,1.30
2022-08-14T04:16:47.413Z,1.30
2022-08-14T04:19:50.332Z,1.58
2022-08-14T04:22:55.648Z,1.83
2022-08-14T04:25:58.911Z,1.40
2022-08-14T04:29:13.910Z,1.40
2022-08-14T04:32:58.864Z,1.77
2022-08-14T04:35:56.322Z,1.48
2022-08-14T04:39:17.274Z,1.50
2022-08-14T04:42:37.512Z,1.23
2022-08-14T04:45:41.679Z,1.73
2022-08-14T04:48:51.197Z,1.83
2022-08-14T04:51:59.698Z,1.50
2022-08-14T04:55:08.274Z,2.00
2022-08-14T04:58:21.601Z,1.52
2022-08-14T05:01:40.323Z,1.65
2022-08-14T05:04:45.162Z,1.33
2022-08-14T05:08:01.207Z,1.25
2022-08-14T05:11:06.583Z,1.63
2022-08-14T05:14:17.326Z,1.15
2022-08-14T05:17:44.306Z,1.30
2022-08-14T05:21:59.612Z,1.65
2022-08-14T05:24:27.213Z,1.50
2022-08-14T05:27:31.065Z,1.55
2022-08-14T05:30:34.192Z,1.20
2022-08-14T05:33:38.434Z,1.60
2022-08-14T05:36:42.742Z,1.33
2022-08-14T05:39:53.304Z,1.70
2022-08-14T05:42:56.681Z,1.40
2022-08-14T05:46:01.721Z,1.50
2022-08-14T05:49:05.478Z,1.55
2022-08-14T05:52:17.907Z,1.20
2022-08-14T05:55:22.965Z,1.65
2022-08-14T05:58:33.814Z,1.50
2022-08-14T06:01:43.765Z,1.60
2022-08-14T06:04:49.348Z,1.92
2022-08-14T06:07:53.623Z,1.50
2022-08-14T06:11:03.500Z,1.70
2022-08-14T06:14:12.455Z,1.45
2022-08-14T06:17:26.242Z,1.33
2022-08-14T06:20:30.143Z,1.50
2022-08-14T06:23:34.577Z,1.75
2022-08-14T06:26:37.551Z,1.58
2022-08-14T06:29:40.431Z,1.67
2022-08-14T06:32:44.008Z,1.73
2022-08-14T06:35:47.603Z,1.58
2022-08-14T06:38:53.942Z,1.33
2022-08-14T06:41:59.753Z,1.50
2022-08-14T06:45:02.975Z,1.60
2022-08-14T06:48:12.754Z,1.60
2022-08-14T06:51:15.647Z,1.42
2022-08-14T06:54:19.947Z,1.60
2022-08-14T06:57:22.756Z,1.58
2022-08-14T07:00:30.537Z,1.40
2022-08-14T07:03:52.222Z,1.80
2022-08-14T07:06:59.111Z,2.50
2022-08-14T07:10:04.856Z,1.98
2022-08-14T07:13:08.066Z,1.52
2022-08-14T07:16:13.019Z,1.42
2022-08-14T07:19:20.765Z,1.70
2022-08-14T07:22:24.053Z,1.60
2022-08-14T07:25:37.714Z,1.25
2022-08-14T07:28:43.416Z,1.60
2022-08-14T07:31:46.724Z,1.40
2022-08-14T07:34:49.849Z,1.83
2022-08-14T07:37:52.783Z,1.58
2022-08-14T07:40:57.060Z,1.60
2022-08-14T07:44:04.328Z,1.55
2022-08-14T07:47:23.805Z,1.80
2022-08-14T07:50:27.155Z,1.63
2022-08-14T07:53:39.246Z,1.63
2022-08-14T07:56:48.993Z,1.77
2022-08-14T07:59:54.499Z,1.63
2022-08-14T08:03:00.272Z,1.73
2022-08-14T08:06:03.568Z,1.55
2022-08-14T08:09:13.476Z,1.63
2022-08-14T08:12:24.976Z,1.73
2022-08-14T08:15:33.105Z,1.55
2022-08-14T08:18:36.499Z,1.60
2022-08-14T08:21:43.613Z,1.40
2022-08-14T08:24:47.603Z,1.63
2022-08-14T08:28:07.978Z,1.70
2022-08-14T08:31:12.638Z,1.90
2022-08-14T08:34:18.103Z,1.52
2022-08-14T08:37:25.317Z,1.90
2022-08-14T08:40:42.074Z,1.85
2022-08-14T08:43:47.011Z,1.80
2022-08-14T08:46:57.803Z,1.73
2022-08-14T08:50:01.894Z,1.85
2022-08-14T08:53:26.344Z,1.60
2022-08-14T08:56:42.191Z,1.70
2022-08-14T08:59:47.013Z,2.22
2022-08-14T09:02:59.609Z,2.17
2022-08-14T09:06:23.245Z,2.30
2022-08-14T09:09:33.109Z,2.08
2022-08-14T09:12:36.979Z,1.95
2022-08-14T09:15:42.794Z,2.67
2022-08-14T09:18:45.788Z,1.85
2022-08-14T09:21:49.180Z,1.95
2022-08-14T09:24:58.902Z,2.05
2022-08-14T09:28:03.185Z,2.22
2022-08-14T09:31:17.395Z,2.30
2022-08-14T09:34:27.232Z,2.15
2022-08-14T09:37:35.819Z,2.40
2022-08-14T09:40:43.959Z,2.42
2022-08-14T09:43:56.121Z,1.95
2022-08-14T09:47:00.933Z,2.30
2022-08-14T09:50:03.795Z,2.13
2022-08-14T09:53:17.807Z,1.88
2022-08-14T09:56:30.303Z,2.35
2022-08-14T09:59:40.897Z,2.13
2022-08-14T10:02:54.286Z,2.28
2022-08-14T10:06:05.392Z,2.33
2022-08-14T10:09:11.930Z,2.33
2022-08-14T10:12:29.000Z,2.33
2022-08-14T10:15:33.324Z,2.80
2022-08-14T10:18:39.839Z,2.25
2022-08-14T10:21:58.530Z,2.45
2022-08-14T10:25:14.334Z,2.35
2022-08-14T10:28:39.506Z,2.63
2022-08-14T10:31:45.792Z,2.35
2022-08-14T10:34:52.860Z,2.38
2022-08-14T10:37:56.017Z,2.30
2022-08-14T10:41:13.272Z,2.35
2022-08-14T10:44:21.639Z,2.72
2022-08-14T10:48:06.986Z,2.75
2022-08-14T10:51:01.650Z,2.30
2022-08-14T10:54:17.177Z,2.70
2022-08-14T10:57:30.853Z,2.80
2022-08-14T11:00:39.194Z,3.17
2022-08-14T11:03:56.016Z,2.65
2022-08-14T11:07:01.399Z,2.50
2022-08-14T11:10:18.526Z,3.13
2022-08-14T11:13:24.208Z,2.80
2022-08-14T11:16:28.757Z,2.90
2022-08-14T11:19:33.551Z,3.08
2022-08-14T11:22:52.598Z,2.65
2022-08-14T11:26:01.060Z,3.45
2022-08-14T11:29:06.871Z,3.05
2022-08-14T11:32:11.483Z,2.95
2022-08-14T11:35:16.442Z,3.13
2022-08-14T11:41:58.072Z,2.63
2022-08-14T11:45:10.995Z,2.90
2022-08-14T11:49:03.229Z,3.08
2022-08-14T11:51:53.954Z,2.80
2022-08-14T11:55:00.572Z,3.00
2022-08-14T11:58:05.155Z,3.22
2022-08-14T12:01:09.515Z,3.72
2022-08-14T12:04:21.503Z,2.90
2022-08-14T12:07:34.926Z,3.15
2022-08-14T12:10:43.881Z,3.17
2022-08-14T12:13:55.917Z,3.22
2022-08-14T12:17:00.276Z,2.85
2022-08-14T12:20:07.262Z,3.25
2022-08-14T12:23:21.373Z,3.22
2022-08-14T12:26:38.941Z,3.08
2022-08-14T12:29:52.012Z,3.58
2022-08-14T12:32:56.312Z,3.90
2022-08-14T12:36:00.574Z,3.60
2022-08-14T12:39:19.415Z,3.92
2022-08-14T12:42:37.887Z,3.67
2022-08-14T12:45:50.089Z,3.40
2022-08-14T12:48:53.392Z,3.40
2022-08-14T12:51:57.791Z,3.22
2022-08-14T12:55:06.141Z,3.38
2022-08-14T12:58:35.107Z,3.58
2022-08-14T13:01:59.633Z,4.00
2022-08-14T13:04:58.535Z,3.50
2022-08-14T13:08:04.476Z,3.85
2022-08-14T13:11:10.465Z,3.70
2022-08-14T13:14:17.919Z,3.10
2022-08-14T13:17:21.348Z,3.35
2022-08-14T13:20:26.678Z,3.53
2022-08-14T13:23:33.768Z,3.83
2022-08-14T13:26:40.170Z,3.67
2022-08-14T13:29:52.558Z,3.60
2022-08-14T13:32:58.406Z,4.32
2022-08-14T13:36:01.328Z,4.00
2022-08-14T13:39:04.217Z,3.70
2022-08-14T13:42:13.187Z,3.47
2022-08-14T13:45:18.163Z,3.75
2022-08-14T13:48:32.352Z,3.38
2022-08-14T13:51:37.705Z,3.80
2022-08-14T13:54:42.163Z,3.90
2022-08-14T13:57:49.601Z,4.18
2022-08-14T14:00:55.536Z,3.97
2022-08-14T14:03:59.337Z,3.63
2022-08-14T14:07:05.701Z,3.45
2022-08-14T14:10:10.312Z,3.67
2022-08-14T14:13:15.682Z,3.88
2022-08-14T14:16:26.035Z,4.05
2022-08-14T14:19:33.360Z,3.50
2022-08-14T14:23:01.544Z,3.58
2022-08-14T14:26:00.960Z,3.55
2022-08-14T14:29:04.421Z,4.38
2022-08-14T14:32:17.330Z,3.65
2022-08-14T14:35:29.987Z,3.47
2022-08-14T14:38:40.997Z,3.47
2022-08-14T14:41:44.481Z,3.55
2022-08-14T14:44:53.066Z,3.55
2022-08-14T14:48:01.911Z,3.45
2022-08-14T14:51:04.889Z,3.45
2022-08-14T14:54:08.469Z,3.50
2022-08-14T14:57:16.728Z,3.50
2022-08-14T15:00:20.471Z,3.97
2022-08-14T15:03:25.787Z,3.80
2022-08-14T15:06:33.508Z,4.20
2022-08-14T15:09:36.924Z,4.43
2022-08-14T15:12:56.436Z,4.63
2022-08-14T15:16:00.478Z,4.70
2022-08-14T15:19:05.852Z,4.22
2022-08-14T15:22:10.579Z,4.10
2022-08-14T15:25:14.706Z,4.35
2022-08-14T15:28:22.118Z,3.95
2022-08-14T15:31:26.176Z,4.13
2022-08-14T15:34:45.605Z,4.43
2022-08-14T15:37:55.525Z,3.63
2022-08-14T15:41:00.097Z,4.45
2022-08-14T15:44:04.015Z,3.90
2022-08-14T15:47:10.258Z,3.72
2022-08-14T15:50:14.891Z,4.00
2022-08-14T15:53:17.824Z,4.07
2022-08-14T15:56:42.451Z,4.22
2022-08-14T16:00:03.071Z,4.10
2022-08-14T16:03:12.589Z,4.03
2022-08-14T16:06:21.371Z,3.90
2022-08-14T16:09:25.722Z,3.63
2022-08-14T16:12:42.323Z,4.00
2022-08-14T16:15:53.530Z,3.08
2022-08-14T16:18:58.187Z,3.70
2022-08-14T16:22:59.267Z,3.03
2022-08-14T16:25:35.383Z,3.08
2022-08-14T16:28:39.709Z,3.03
2022-08-14T16:31:43.959Z,3.03
2022-08-14T16:34:49.223Z,3.10
2022-08-14T16:37:56.443Z,2.47
2022-08-14T16:41:14.959Z,2.50
2022-08-14T16:44:31.598Z,2.63
2022-08-14T16:47:36.394Z,2.55
2022-08-14T16:50:43.036Z,2.30
2022-08-14T16:53:48.814Z,2.08
2022-08-14T16:56:52.440Z,2.20
2022-08-14T16:59:58.874Z,1.65
2022-08-14T17:03:03.975Z,2.42
2022-08-14T17:06:30.561Z,2.10
2022-08-14T17:09:33.448Z,2.10
2022-08-14T17:12:36.932Z,1.90
2022-08-14T17:15:45.472Z,2.22
2022-08-14T17:18:55.545Z,2.20
2022-08-14T17:22:05.130Z,2.15
2022-08-14T17:25:10.115Z,1.90
2022-08-14T17:28:51.182Z,1.77
2022-08-14T17:35:05.435Z,2.20
2022-08-14T17:41:43.630Z,1.98
2022-08-14T17:44:48.169Z,2.20
2022-08-14T17:47:51.330Z,2.10
2022-08-14T17:51:01.186Z,2.30
2022-08-14T17:54:08.380Z,2.30
2022-08-14T17:57:14.218Z,2.17
2022-08-14T18:00:17.844Z,2.35
2022-08-14T18:03:51.197Z,2.20
2022-08-14T18:07:06.060Z,1.88
2022-08-14T18:10:52.058Z,2.25
2022-08-14T18:13:52.029Z,2.50
2022-08-14T18:16:57.086Z,2.45
2022-08-14T18:20:00.480Z,2.50
2022-08-14T18:23:05.919Z,2.42
2022-08-14T18:26:37.054Z,2.50
2022-08-14T18:29:42.485Z,2.42
2022-08-14T18:32:47.605Z,2.50
2022-08-14T18:36:47.167Z,2.90
2022-08-14T18:39:25.855Z,2.83
2022-08-14T18:42:44.240Z,3.20
2022-08-14T18:46:02.138Z,3.03
2022-08-14T18:49:16.830Z,2.70
2022-08-14T18:52:20.221Z,2.45
2022-08-14T18:55:52.780Z,2.72
2022-08-14T18:58:58.836Z,2.95
2022-08-14T19:02:21.753Z,2.67
2022-08-14T19:05:48.595Z,3.00
2022-08-14T19:08:53.407Z,2.58
2022-08-14T19:11:58.472Z,3.03
2022-08-14T19:15:08.407Z,2.67
2022-08-14T19:18:25.775Z,2.60
2022-08-14T19:21:30.853Z,2.50
2022-08-14T19:24:44.037Z,2.53
2022-08-14T19:28:09.889Z,2.10
2022-08-14T19:31:42.156Z,2.03
2022-08-14T19:34:52.329Z,2.03
2022-08-14T19:37:56.552Z,2.22
2022-08-14T19:41:02.576Z,2.17
2022-08-14T19:44:10.377Z,1.73
2022-08-14T19:47:14.301Z,1.65
2022-08-14T19:50:38.013Z,2.13
2022-08-14T19:53:50.017Z,1.60
2022-08-14T19:57:01.499Z,1.80
2022-08-14T20:00:28.093Z,1.35
2022-08-14T20:03:59.659Z,1.25
2022-08-14T20:07:08.810Z,1.50
2022-08-14T20:11:06.480Z,2.13
2022-08-14T20:13:56.613Z,1.85
2022-08-14T20:17:06.039Z,1.40
2022-08-14T20:20:30.530Z,1.88
2022-08-14T20:23:38.318Z,1.27
2022-08-14T20:26:43.343Z,1.30
2022-08-14T20:30:29.581Z,1.50
2022-08-14T20:33:48.029Z,1.05
2022-08-14T20:37:00.816Z,1.38
2022-08-14T20:40:23.224Z,1.60
2022-08-14T20:43:45.739Z,1.33
2022-08-14T20:46:53.263Z,1.63
2022-08-14T20:50:16.659Z,1.40
2022-08-14T20:53:28.868Z,1.38
2022-08-14T20:56:36.208Z,1.30
2022-08-14T20:59:43.715Z,0.93
2022-08-14T21:02:50.218Z,1.10
2022-08-14T21:05:56.836Z,1.40
2022-08-14T21:09:02.598Z,1.63
2022-08-14T21:12:33.980Z,1.70
2022-08-14T21:15:36.644Z,1.40
2022-08-14T21:18:47.697Z,1.73
2022-08-14T21:21:55.426Z,1.33
2022-08-14T21:25:02.330Z,1.30
2022-08-14T21:28:27.673Z,1.40
2022-08-14T21:31:33.811Z,1.15
2022-08-14T21:34:42.004Z,1.20
2022-08-14T21:37:58.301Z,1.67
2022-08-14T21:41:41.428Z,1.40
2022-08-14T21:44:34.336Z,1.30
2022-08-14T21:47:47.301Z,1.30
2022-08-14T21:51:01.226Z,1.20
2022-08-14T21:54:32.097Z,1.52
2022-08-14T21:58:04.142Z,1.77
2022-08-14T22:01:10.499Z,1.65
2022-08-14T22:04:33.189Z,1.60
2022-08-14T22:07:39.834Z,1.15
2022-08-14T22:10:46.323Z,1.65
2022-08-14T22:13:50.784Z,1.70
2022-08-14T22:17:03.432Z,1.75
2022-08-14T22:20:16.655Z,1.60
2022-08-14T22:23:21.315Z,2.08
2022-08-14T22:26:30.613Z,2.22
2022-08-14T22:29:36.882Z,1.63
2022-08-14T22:32:57.441Z,1.90
2022-08-14T22:36:01.449Z,1.90
2022-08-14T22:39:06.069Z,1.75
2022-08-14T22:42:21.180Z,1.90
2022-08-14T22:45:25.563Z,1.90
2022-08-14T22:48:40.561Z,1.58
2022-08-14T22:51:48.341Z,1.65
2022-08-14T22:54:53.810Z,1.92
2022-08-14T22:57:56.692Z,1.58
2022-08-14T23:01:01.531Z,1.73
2022-08-14T23:04:05.195Z,1.65
2022-08-14T23:07:14.372Z,1.63
2022-08-14T23:10:32.673Z,1.77
2022-08-14T23:13:38.945Z,1.65
2022-08-14T23:16:42.697Z,1.63
2022-08-14T23:19:45.996Z,1.48
2022-08-14T23:22:51.426Z,2.10
2022-08-14T23:25:59.024Z,1.80
2022-08-14T23:29:05.198Z,1.38
2022-08-14T23:32:15.595Z,1.77
2022-08-14T23:35:25.957Z,1.90
2022-08-14T23:38:30.641Z,1.45
2022-08-14T23:41:46.355Z,1.48
2022-08-14T23:44:55.590Z,1.92
2022-08-14T23:47:58.868Z,1.80
2022-08-14T23:51:02.914Z,1.90
2022-08-14T23:54:06.144Z,1.60
2022-08-14T23:57:30.580Z,2.05
